Time;durP1;ratioP1;P1;durP2;ratioP2;P2;SDS_P1;SDS_P2;PMS_P1;PMS_P2;Temp;Humidity;BMP_temperature;BMP_pressure;BME280_temperature;BME280_humidity;BME280_pressure;Samples;Min_cycle;Max_cycle;Signal;HPM_P1;HPM_P2
2022/08/20 00:00:21;;;;;;;2.70;1.17;;;18.60;99.90;;;;;;5033262;28;20534;-68
2022/08/20 00:02:51;;;;;;;2.47;1.03;;;18.60;99.90;;;;;;5032822;28;20500;-68
2022/08/20 00:05:22;;;;;;;2.30;0.93;;;18.50;99.90;;;;;;5033024;28;20432;-69
2022/08/20 00:07:47;;;;;;;5.33;0.90;;;18.50;99.90;;;;;;5033019;28;20463;-68
2022/08/20 00:10:13;;;;;;;2.13;0.80;;;18.50;99.90;;;;;;5033099;28;20417;-68
2022/08/20 00:12:44;;;;;;;2.57;1.17;;;18.40;99.90;;;;;;5032498;28;20594;-69
2022/08/20 00:15:11;;;;;;;1.57;0.70;;;18.40;99.90;;;;;;5032949;28;20158;-68
2022/08/20 00:17:38;;;;;;;2.33;1.17;;;18.40;99.90;;;;;;5032716;28;20723;-68
2022/08/20 00:20:07;;;;;;;1.53;0.77;;;18.30;99.90;;;;;;5032753;28;20445;-68
2022/08/20 00:22:33;;;;;;;1.70;0.70;;;18.40;99.90;;;;;;5032305;28;20775;-69
2022/08/20 00:24:59;;;;;;;1.87;0.73;;;18.40;99.90;;;;;;5032846;28;20409;-68
2022/08/20 00:27:24;;;;;;;1.70;0.80;;;18.30;99.90;;;;;;5031920;28;20182;-69
2022/08/20 00:29:50;;;;;;;2.23;1.10;;;18.30;99.90;;;;;;5032660;28;20709;-68
2022/08/20 00:32:15;;;;;;;1.60;0.70;;;18.20;99.90;;;;;;5032048;28;20240;-68
2022/08/20 00:34:41;;;;;;;1.90;0.93;;;18.30;99.90;;;;;;5032563;28;20261;-68
2022/08/20 00:37:07;;;;;;;1.80;0.80;;;18.30;99.90;;;;;;5032570;28;20170;-68
2022/08/20 00:39:33;;;;;;;1.60;0.70;;;18.30;99.90;;;;;;5032609;28;20273;-68
2022/08/20 00:42:01;;;;;;;1.80;0.90;;;18.30;99.90;;;;;;5031890;28;20829;-68
2022/08/20 00:44:27;;;;;;;2.93;1.13;;;18.40;99.90;;;;;;5032581;28;20412;-68
2022/08/20 00:46:53;;;;;;;2.00;0.87;;;18.30;99.90;;;;;;5032234;28;20410;-68
2022/08/20 00:49:36;;;;;;;5.33;1.83;;;18.40;99.90;;;;;;5032417;28;20412;-68
2022/08/20 00:52:16;;;;;;;2.50;1.10;;;18.30;99.90;;;;;;5031107;28;20178;-68
2022/08/20 00:54:45;;;;;;;1.60;0.80;;;18.30;99.90;;;;;;5032238;28;20504;-68
2022/08/20 00:57:27;;;;;;;2.10;0.90;;;18.40;99.90;;;;;;5032009;28;20770;-68
2022/08/20 00:59:53;;;;;;;2.13;0.73;;;18.30;99.90;;;;;;5032225;28;20522;-68
2022/08/20 01:02:21;;;;;;;2.90;1.20;;;18.30;99.90;;;;;;5031898;28;20445;-68
2022/08/20 01:04:54;;;;;;;1.63;0.70;;;18.30;99.90;;;;;;5032360;28;20670;-68
2022/08/20 01:07:22;;;;;;;2.50;0.93;;;18.30;99.90;;;;;;5032160;28;20406;-69
2022/08/20 01:09:48;;;;;;;1.83;0.90;;;18.30;99.90;;;;;;5032186;28;20413;-68
2022/08/20 01:12:15;;;;;;;3.40;1.20;;;18.30;99.90;;;;;;5031755;28;20420;-68
2022/08/20 01:14:44;;;;;;;;;;;;;;;;;;;;;
2022/08/20 01:17:08;;;;;;;1.60;0.90;;;18.30;99.90;;;;;;5032540;28;20418;-68
2022/08/20 01:19:39;;;;;;;1.73;0.83;;;18.30;99.90;;;;;;5032338;28;21020;-68
2022/08/20 01:23:25;;;;;;;1.73;0.80;;;18.30;99.90;;;;;;5031637;28;20428;-68
2022/08/20 01:24:57;;;;;;;2.00;1.03;;;18.30;99.90;;;;;;5032217;28;20425;-68
2022/08/20 01:27:23;;;;;;;2.10;1.03;;;18.30;99.90;;;;;;5032040;28;20409;-68
2022/08/20 01:29:50;;;;;;;2.37;1.00;;;18.40;99.90;;;;;;5032118;28;20437;-68
2022/08/20 01:32:16;;;;;;;2.10;1.13;;;18.30;99.90;;;;;;5031234;28;20432;-68
2022/08/20 01:34:42;;;;;;;2.63;0.97;;;18.40;99.90;;;;;;5032070;28;20459;-68
2022/08/20 01:37:07;;;;;;;4.03;1.07;;;18.40;99.90;;;;;;5031898;28;20615;-68
2022/08/20 01:39:35;;;;;;;1.90;1.10;;;18.50;99.90;;;;;;5035742;28;20206;-68
2022/08/20 01:42:13;;;;;;;2.20;1.20;;;18.50;99.90;;;;;;5035461;28;20171;-68
2022/08/20 01:44:41;;;;;;;2.10;1.00;;;18.50;99.90;;;;;;5035706;28;20980;-68
2022/08/20 01:47:18;;;;;;;1.80;0.93;;;18.50;99.90;;;;;;5035599;28;21059;-68
2022/08/20 01:49:50;;;;;;;2.07;1.03;;;18.50;99.90;;;;;;5035767;28;20913;-69
2022/08/20 01:52:23;;;;;;;2.60;1.00;;;18.50;99.90;;;;;;5034342;28;20405;-68
2022/08/20 01:54:49;;;;;;;6.73;1.20;;;18.50;99.90;;;;;;5035463;28;20405;-68
2022/08/20 01:57:17;;;;;;;3.60;1.10;;;18.60;99.90;;;;;;5019704;28;20420;-68
2022/08/20 01:59:44;;;;;;;1.70;0.90;;;18.60;99.90;;;;;;5015727;28;20191;-68
2022/08/20 02:02:11;;;;;;;3.43;1.27;;;18.60;99.90;;;;;;5015225;28;20438;-68
2022/08/20 02:04:37;;;;;;;1.63;0.90;;;18.60;99.90;;;;;;5015459;28;20460;-68
2022/08/20 02:07:06;;;;;;;2.00;1.03;;;18.60;99.90;;;;;;5015809;28;20434;-68
2022/08/20 02:09:36;;;;;;;2.07;0.80;;;18.60;99.90;;;;;;5015542;28;20464;-68
2022/08/20 02:12:04;;;;;;;1.93;1.20;;;18.60;99.90;;;;;;5014939;28;20501;-69
2022/08/20 02:14:31;;;;;;;2.07;0.87;;;18.60;99.90;;;;;;5015586;28;20463;-68
2022/08/20 02:16:58;;;;;;;2.40;1.10;;;18.60;99.90;;;;;;5015473;28;20425;-69
2022/08/20 02:19:34;;;;;;;2.40;1.30;;;18.60;99.90;;;;;;5015556;28;20449;-68
2022/08/20 02:22:07;;;;;;;3.07;1.10;;;18.60;99.90;;;;;;5014756;28;20412;-68
2022/08/20 02:24:33;;;;;;;1.80;0.93;;;18.60;99.90;;;;;;5015161;28;20898;-69
2022/08/20 02:26:59;;;;;;;2.07;1.20;;;18.60;99.90;;;;;;5015198;28;20407;-68
2022/08/20 02:29:25;;;;;;;2.20;1.03;;;18.60;99.90;;;;;;5015135;28;20805;-68
2022/08/20 02:31:53;;;;;;;1.60;1.00;;;18.60;99.90;;;;;;5014666;28;20180;-68
2022/08/20 02:34:18;;;;;;;2.70;1.30;;;18.60;99.90;;;;;;5014848;28;20175;-68
2022/08/20 02:36:44;;;;;;;2.60;0.90;;;18.60;99.90;;;;;;5015118;28;20877;-68
2022/08/20 02:39:11;;;;;;;2.23;1.03;;;18.60;99.90;;;;;;5014902;28;20191;-69
2022/08/20 02:41:38;;;;;;;2.20;1.30;;;18.60;99.90;;;;;;5014843;28;20417;-68
2022/08/20 02:44:05;;;;;;;2.07;0.93;;;18.60;99.90;;;;;;5015049;28;20421;-68
2022/08/20 02:46:32;;;;;;;1.70;0.93;;;18.60;99.90;;;;;;5015080;28;20414;-69
2022/08/20 02:48:58;;;;;;;2.73;1.13;;;18.60;99.90;;;;;;5014627;28;20429;-68
2022/08/20 02:51:24;;;;;;;5.00;1.27;;;18.60;99.90;;;;;;5013896;28;20410;-68
2022/08/20 02:53:51;;;;;;;1.83;0.90;;;18.60;99.90;;;;;;5014677;28;20179;-68
2022/08/20 02:56:17;;;;;;;4.37;0.80;;;18.60;99.90;;;;;;5022479;28;20409;-68
2022/08/20 02:58:43;;;;;;;11.80;1.30;;;18.50;99.90;;;;;;5034227;28;20902;-68
2022/08/20 03:01:12;;;;;;;3.17;1.47;;;18.50;99.90;;;;;;5033912;28;20444;-68
2022/08/20 03:03:41;;;;;;;1.97;1.20;;;18.60;99.90;;;;;;5034536;28;20559;-68
2022/08/20 03:06:09;;;;;;;2.50;1.00;;;18.60;99.90;;;;;;5034256;28;20401;-68
2022/08/20 03:08:36;;;;;;;1.97;0.90;;;18.60;99.90;;;;;;5034245;28;20417;-68
2022/08/20 03:11:02;;;;;;;2.93;1.33;;;18.60;99.90;;;;;;5032553;28;20417;-68
2022/08/20 03:13:28;;;;;;;3.30;1.70;;;18.60;99.90;;;;;;5033909;28;20500;-68
2022/08/20 03:15:57;;;;;;;4.40;1.40;;;18.50;99.90;;;;;;5034037;28;20500;-69
2022/08/20 03:18:25;;;;;;;1.87;1.07;;;18.50;99.90;;;;;;5033956;28;20167;-68
2022/08/20 03:20:51;;;;;;;2.10;1.10;;;18.50;99.90;;;;;;5033772;28;21095;-68
2022/08/20 03:23:19;;;;;;;2.70;1.37;;;18.40;99.90;;;;;;5033387;28;20460;-68
2022/08/20 03:25:45;;;;;;;2.27;1.20;;;18.30;99.90;;;;;;5034100;28;20217;-68
2022/08/20 03:28:11;;;;;;;3.47;1.77;;;18.30;99.90;;;;;;5033642;28;20417;-68
2022/08/20 03:30:37;;;;;;;3.97;1.33;;;18.30;99.90;;;;;;5033804;28;20413;-68
2022/08/20 03:33:03;;;;;;;3.30;1.73;;;18.30;99.90;;;;;;5033264;28;20186;-68
2022/08/20 03:35:32;;;;;;;2.53;1.37;;;18.20;99.90;;;;;;5033689;28;20189;-68
2022/08/20 03:37:58;;;;;;;3.00;1.30;;;18.20;99.90;;;;;;5033746;28;20171;-69
2022/08/20 03:40:27;;;;;;;2.37;1.20;;;18.10;99.90;;;;;;5033448;28;20456;-68
2022/08/20 03:42:53;;;;;;;2.43;1.30;;;18.10;99.90;;;;;;5033180;28;20167;-68
2022/08/20 03:45:20;;;;;;;3.27;1.40;;;18.10;99.90;;;;;;5033641;28;20458;-68
2022/08/20 03:47:46;;;;;;;4.67;1.93;;;18.00;99.90;;;;;;5033556;28;20175;-68
2022/08/20 03:50:12;;;;;;;3.43;1.60;;;18.00;99.90;;;;;;5033598;28;20412;-68
2022/08/20 03:52:38;;;;;;;2.17;1.13;;;18.00;99.90;;;;;;5032397;28;20410;-68
2022/08/20 03:55:09;;;;;;;5.00;1.43;;;18.00;99.90;;;;;;5033315;28;20416;-68
2022/08/20 03:57:35;;;;;;;1.60;0.83;;;18.00;99.90;;;;;;5033410;28;20405;-68
2022/08/20 04:00:02;;;;;;;3.70;1.43;;;18.00;99.90;;;;;;5033066;28;20804;-69
2022/08/20 04:02:28;;;;;;;5.27;2.00;;;17.90;99.90;;;;;;5032688;28;20189;-68
2022/08/20 04:04:54;;;;;;;2.60;1.20;;;17.90;99.90;;;;;;5033320;28;20409;-68
2022/08/20 04:07:26;;;;;;;2.70;1.20;;;17.90;99.90;;;;;;5033170;28;20170;-69
2022/08/20 04:09:55;;;;;;;2.40;1.50;;;17.90;99.90;;;;;;5033012;28;20165;-68
2022/08/20 04:12:23;;;;;;;3.37;1.43;;;17.90;99.90;;;;;;5032850;28;20417;-69
2022/08/20 04:14:50;;;;;;;2.13;1.20;;;17.90;99.90;;;;;;5033113;28;20488;-68
2022/08/20 04:17:17;;;;;;;2.80;1.37;;;17.90;99.90;;;;;;5033475;28;20766;-69
2022/08/20 04:19:43;;;;;;;6.77;1.80;;;17.90;99.90;;;;;;5033255;28;20461;-68
2022/08/20 04:22:12;;;;;;;3.30;1.90;;;17.90;99.90;;;;;;5032698;28;20471;-68
2022/08/20 04:24:39;;;;;;;3.47;1.97;;;17.90;99.90;;;;;;4993672;28;20186;-69
2022/08/20 04:27:07;;;;;;;3.60;1.50;;;17.90;99.90;;;;;;4993632;28;20399;-68
2022/08/20 04:29:33;;;;;;;2.70;1.53;;;17.90;99.90;;;;;;4993498;28;20415;-68
2022/08/20 04:32:01;;;;;;;2.43;1.60;;;17.90;99.90;;;;;;4992784;28;20439;-68
2022/08/20 04:34:28;;;;;;;3.27;1.70;;;17.90;99.90;;;;;;4993094;28;20946;-69
2022/08/20 04:36:53;;;;;;;4.67;1.37;;;17.90;99.90;;;;;;4993153;28;20441;-68
2022/08/20 04:39:19;;;;;;;3.07;1.33;;;17.90;99.90;;;;;;4993164;28;20494;-68
2022/08/20 04:41:45;;;;;;;2.77;1.73;;;18.00;99.90;;;;;;4992845;28;20282;-68
2022/08/20 04:44:11;;;;;;;2.80;1.70;;;18.00;99.90;;;;;;4993240;28;20179;-68
2022/08/20 04:46:38;;;;;;;2.53;1.50;;;18.00;99.90;;;;;;4993156;28;20183;-68
2022/08/20 04:49:05;;;;;;;3.40;1.57;;;18.00;99.90;;;;;;4993008;28;20966;-68
2022/08/20 04:51:32;;;;;;;3.37;1.40;;;18.00;99.90;;;;;;4992077;28;20466;-68
2022/08/20 04:53:59;;;;;;;6.90;1.60;;;18.00;99.90;;;;;;4992901;28;20418;-68
2022/08/20 04:56:29;;;;;;;2.97;1.50;;;18.00;99.90;;;;;;5010620;28;20417;-68
2022/08/20 04:59:00;;;;;;;3.20;1.60;;;18.00;99.90;;;;;;5031944;28;20448;-68
2022/08/20 05:01:26;;;;;;;2.97;1.57;;;18.00;99.90;;;;;;5031899;28;20897;-68
2022/08/20 05:03:54;;;;;;;2.03;1.43;;;18.00;99.90;;;;;;5032278;28;20405;-68
2022/08/20 05:06:23;;;;;;;6.27;2.10;;;18.00;99.90;;;;;;5032107;28;20901;-68
2022/08/20 05:08:49;;;;;;;2.90;1.07;;;18.00;99.90;;;;;;5032174;28;20437;-68
2022/08/20 05:11:14;;;;;;;3.13;1.47;;;18.00;99.90;;;;;;5031666;28;20456;-69
2022/08/20 05:13:41;;;;;;;2.93;1.23;;;18.00;99.90;;;;;;5031687;28;20170;-68
2022/08/20 05:16:07;;;;;;;3.20;1.50;;;18.00;99.90;;;;;;5031832;28;20174;-69
2022/08/20 05:18:34;;;;;;;2.70;1.50;;;18.00;99.90;;;;;;5031965;28;20416;-68
2022/08/20 05:21:07;;;;;;;3.10;1.67;;;18.00;99.90;;;;;;5031691;28;20420;-68
2022/08/20 05:23:35;;;;;;;9.30;1.77;;;18.00;99.90;;;;;;5032109;28;20425;-68
2022/08/20 05:26:07;;;;;;;4.00;1.60;;;18.00;99.90;;;;;;5031797;28;20465;-68
2022/08/20 05:28:35;;;;;;;3.10;1.60;;;18.00;99.90;;;;;;5032013;28;20405;-68
2022/08/20 05:31:01;;;;;;;3.83;2.03;;;18.00;99.90;;;;;;5031657;28;20406;-68
2022/08/20 05:33:28;;;;;;;3.30;1.40;;;17.90;99.90;;;;;;5031821;28;20959;-69
2022/08/20 05:35:55;;;;;;;3.63;1.50;;;17.90;99.90;;;;;;5032001;28;20401;-68
2022/08/20 05:38:27;;;;;;;4.43;2.17;;;17.90;99.90;;;;;;5032014;28;20912;-68
2022/08/20 05:40:53;;;;;;;4.77;2.20;;;17.90;99.90;;;;;;5031781;28;20823;-68
2022/08/20 05:43:19;;;;;;;2.93;1.60;;;17.90;99.90;;;;;;5031750;28;20413;-68
2022/08/20 05:45:51;;;;;;;4.03;2.00;;;17.90;99.90;;;;;;5032071;28;20413;-68
2022/08/20 05:48:21;;;;;;;3.27;1.87;;;17.90;99.90;;;;;;5032245;28;20386;-68
2022/08/20 05:50:49;;;;;;;4.00;2.17;;;17.90;99.90;;;;;;5031249;28;20510;-68
2022/08/20 05:53:17;;;;;;;3.13;1.93;;;18.00;99.90;;;;;;5031545;28;20409;-68
2022/08/20 05:55:44;;;;;;;6.23;1.87;;;18.00;99.90;;;;;;5031743;28;20417;-68
2022/08/20 05:58:17;;;;;;;3.93;1.80;;;18.00;99.90;;;;;;5031977;28;20491;-68
2022/08/20 06:00:43;;;;;;;3.07;1.50;;;18.00;99.90;;;;;;5031476;28;20556;-68
2022/08/20 06:05:53;;;;;;;2.97;1.90;;;18.10;99.90;;;;;;5031473;28;20392;-68
2022/08/20 06:08:19;;;;;;;3.50;2.33;;;18.20;99.90;;;;;;5031650;28;20409;-67
2022/08/20 06:10:45;;;;;;;5.20;2.07;;;18.20;99.90;;;;;;5031388;28;20539;-68
2022/08/20 06:13:10;;;;;;;3.90;1.93;;;18.30;99.90;;;;;;5031326;28;20178;-68
2022/08/20 06:15:36;;;;;;;3.90;2.23;;;18.30;99.90;;;;;;5031324;28;20217;-67
2022/08/20 06:18:06;;;;;;;3.87;1.47;;;18.30;99.90;;;;;;5031443;28;20193;-68
2022/08/20 06:20:33;;;;;;;2.67;1.60;;;18.40;99.90;;;;;;5031424;28;20206;-68
2022/08/20 06:22:59;;;;;;;3.20;1.47;;;18.50;99.90;;;;;;5031193;28;20421;-68
2022/08/20 06:25:24;;;;;;;2.87;1.40;;;18.60;99.90;;;;;;5033253;28;20463;-67
2022/08/20 06:27:50;;;;;;;2.40;1.10;;;18.70;99.90;;;;;;5034942;28;20186;-68
2022/08/20 06:30:16;;;;;;;3.73;2.20;;;18.70;99.90;;;;;;5034796;28;20178;-68
2022/08/20 06:32:42;;;;;;;3.50;1.70;;;18.80;99.90;;;;;;5034254;28;20198;-68
2022/08/20 06:35:10;;;;;;;3.30;2.00;;;18.80;99.90;;;;;;5034766;28;20409;-68
2022/08/20 06:37:38;;;;;;;3.70;1.73;;;18.90;99.90;;;;;;5034872;28;20178;-68
2022/08/20 06:40:10;;;;;;;3.70;1.83;;;18.90;99.90;;;;;;5034525;28;20480;-68
2022/08/20 06:42:38;;;;;;;2.67;1.30;;;18.90;99.90;;;;;;5034326;28;20394;-68
2022/08/20 06:45:04;;;;;;;3.10;1.80;;;18.90;99.90;;;;;;5034505;28;20941;-68
2022/08/20 06:47:31;;;;;;;5.80;2.07;;;19.00;99.90;;;;;;5034778;28;20406;-68
2022/08/20 06:49:57;;;;;;;3.80;1.70;;;19.10;99.90;;;;;;5034447;28;20591;-68
2022/08/20 06:52:22;;;;;;;3.50;1.70;;;19.10;99.90;;;;;;5033571;28;20441;-68
2022/08/20 06:54:48;;;;;;;2.70;1.40;;;19.20;99.90;;;;;;5034438;28;20530;-68
2022/08/20 06:57:14;;;;;;;3.10;1.40;;;19.30;99.90;;;;;;5034389;28;20822;-68
2022/08/20 06:59:40;;;;;;;4.20;1.93;;;19.40;99.90;;;;;;5034394;28;20209;-68
2022/08/20 07:02:06;;;;;;;3.87;1.77;;;19.60;99.90;;;;;;5033713;28;20174;-68
2022/08/20 07:04:32;;;;;;;3.90;1.83;;;19.80;99.90;;;;;;5033897;28;20763;-68
2022/08/20 07:06:58;;;;;;;5.07;1.80;;;19.80;99.90;;;;;;5034285;28;20417;-68
2022/08/20 07:09:25;;;;;;;5.23;2.13;;;19.80;99.90;;;;;;5034233;28;20171;-68
2022/08/20 07:11:51;;;;;;;3.63;1.73;;;19.70;99.90;;;;;;5033760;28;20174;-68
2022/08/20 07:14:17;;;;;;;2.30;1.50;;;19.70;99.90;;;;;;5034362;28;20441;-68
2022/08/20 07:16:45;;;;;;;5.50;2.23;;;19.60;99.90;;;;;;5034375;28;20520;-68
2022/08/20 07:19:12;;;;;;;3.93;2.10;;;19.50;99.90;;;;;;5033908;28;20492;-68
2022/08/20 07:21:38;;;;;;;6.13;1.87;;;19.50;99.90;;;;;;5033759;28;20670;-68
2022/08/20 07:24:04;;;;;;;3.20;1.90;;;19.40;99.90;;;;;;5033959;28;20935;-68
2022/08/20 07:26:30;;;;;;;4.37;2.07;;;19.50;99.90;;;;;;5034122;28;20258;-68
2022/08/20 07:28:55;;;;;;;9.60;1.93;;;19.50;99.90;;;;;;5034014;28;20498;-68
2022/08/20 07:34:05;;;;;;;4.07;2.10;;;19.70;99.90;;;;;;5033699;28;20223;-68
2022/08/20 07:36:31;;;;;;;4.60;2.30;;;19.80;99.90;;;;;;5033255;28;20409;-68
2022/08/20 07:38:57;;;;;;;4.40;2.23;;;19.90;99.90;;;;;;5033688;28;20591;-68
2022/08/20 07:41:23;;;;;;;3.33;1.80;;;20.00;99.90;;;;;;5033143;28;20528;-68
2022/08/20 07:43:49;;;;;;;5.50;2.60;;;20.00;99.90;;;;;;5033525;28;20878;-68
2022/08/20 07:46:17;;;;;;;2.67;1.73;;;20.10;99.90;;;;;;5033372;28;20166;-68
2022/08/20 07:48:45;;;;;;;3.90;2.00;;;20.10;99.90;;;;;;5033534;28;20638;-68
2022/08/20 07:51:13;;;;;;;4.07;1.67;;;20.20;99.90;;;;;;5032321;28;21475;-68
2022/08/20 07:53:39;;;;;;;3.50;2.00;;;20.20;99.90;;;;;;5033425;28;20417;-68
2022/08/20 07:56:09;;;;;;;7.63;1.97;;;20.10;99.90;;;;;;5032929;28;20405;-68
2022/08/20 07:58:35;;;;;;;4.80;2.20;;;20.20;99.90;;;;;;5032796;28;20401;-68
2022/08/20 08:01:02;;;;;;;4.47;2.53;;;20.30;99.90;;;;;;5032328;28;20456;-68
2022/08/20 08:03:28;;;;;;;5.67;2.37;;;20.40;99.90;;;;;;5033061;28;20413;-68
2022/08/20 08:05:55;;;;;;;5.10;2.77;;;20.40;99.90;;;;;;5032630;28;20409;-68
2022/08/20 08:08:23;;;;;;;4.40;2.00;;;20.50;99.90;;;;;;5032628;28;20278;-68
2022/08/20 08:10:52;;;;;;;4.17;2.37;;;20.60;99.90;;;;;;5032556;28;20410;-68
2022/08/20 08:13:18;;;;;;;4.07;1.70;;;20.60;99.90;;;;;;5031925;28;20405;-67
2022/08/20 08:15:46;;;;;;;3.93;2.17;;;20.60;99.90;;;;;;5032350;28;20408;-69
2022/08/20 08:18:23;;;;;;;7.23;2.70;;;20.80;99.90;;;;;;5032477;28;20523;-68
2022/08/20 08:20:52;;;;;;;4.10;1.80;;;20.80;99.90;;;;;;5032640;28;20456;-68
2022/08/20 08:23:19;;;;;;;3.53;1.67;;;20.90;99.90;;;;;;5032036;28;20909;-68
2022/08/20 08:25:45;;;;;;;3.13;2.00;;;21.10;99.90;;;;;;5032312;28;20401;-68
2022/08/20 08:28:13;;;;;;;3.73;1.83;;;21.20;99.90;;;;;;5032256;28;20494;-68
2022/08/20 08:30:40;;;;;;;2.73;1.70;;;21.30;99.90;;;;;;5032440;28;20420;-68
2022/08/20 08:35:51;;;;;;;4.10;2.10;;;21.30;99.90;;;;;;5032376;28;20412;-68
2022/08/20 08:38:17;;;;;;;6.67;2.00;;;21.40;99.90;;;;;;5032617;28;20409;-68
2022/08/20 08:40:43;;;;;;;2.17;1.10;;;21.50;99.90;;;;;;5032600;28;20205;-68
2022/08/20 08:43:12;;;;;;;2.90;1.50;;;21.60;99.90;;;;;;5032245;28;20412;-68
2022/08/20 08:45:42;;;;;;;4.50;1.90;;;21.80;99.90;;;;;;5032737;28;20496;-68
2022/08/20 08:48:09;;;;;;;3.30;1.90;;;21.80;99.90;;;;;;5031947;28;20405;-68
2022/08/20 08:50:36;;;;;;;4.90;1.67;;;22.00;99.90;;;;;;5032083;28;20421;-68
2022/08/20 08:53:04;;;;;;;5.20;2.23;;;22.10;99.90;;;;;;5032153;28;20409;-67
2022/08/20 08:55:31;;;;;;;4.20;1.50;;;22.10;99.90;;;;;;5032480;28;20413;-68
2022/08/20 08:58:00;;;;;;;3.20;1.60;;;22.00;99.90;;;;;;5032478;28;20417;-68
2022/08/20 09:00:27;;;;;;;4.13;1.93;;;22.00;99.90;;;;;;5032375;28;20502;-67
2022/08/20 09:02:59;;;;;;;3.73;1.30;;;22.00;99.90;;;;;;5032106;28;20416;-68
2022/08/20 09:05:42;;;;;;;2.27;1.30;;;22.10;99.90;;;;;;5032351;28;20414;-68
2022/08/20 09:08:11;;;;;;;2.30;1.40;;;22.30;99.90;;;;;;5032257;28;20447;-68
2022/08/20 09:10:38;;;;;;;3.30;1.53;;;22.30;99.90;;;;;;5032224;28;20417;-68
2022/08/20 09:13:05;;;;;;;3.13;1.53;;;22.30;99.90;;;;;;5031842;28;20443;-68
2022/08/20 09:15:31;;;;;;;3.30;1.50;;;22.50;99.90;;;;;;5031962;28;20935;-68
2022/08/20 09:17:57;;;;;;;3.17;1.87;;;22.60;99.90;;;;;;5032128;28;20467;-68
2022/08/20 09:20:22;;;;;;;3.03;1.60;;;22.80;99.90;;;;;;5031996;28;20932;-68
2022/08/20 09:22:48;;;;;;;2.37;1.27;;;23.10;99.60;;;;;;5031431;28;20174;-68
2022/08/20 09:25:15;;;;;;;3.43;1.83;;;23.30;99.00;;;;;;5032162;28;20184;-67
2022/08/20 09:27:40;;;;;;;2.30;1.30;;;23.00;99.50;;;;;;5031905;28;20420;-68
2022/08/20 09:30:07;;;;;;;3.33;1.63;;;22.80;99.90;;;;;;5031795;28;20714;-68
2022/08/20 09:32:32;;;;;;;4.67;1.53;;;22.70;99.90;;;;;;5031317;28;20914;-68
2022/08/20 09:34:58;;;;;;;3.47;1.90;;;22.60;99.90;;;;;;5032117;28;20413;-68
2022/08/20 09:37:26;;;;;;;3.20;1.60;;;22.50;99.60;;;;;;5031893;28;20178;-68
2022/08/20 09:39:52;;;;;;;2.70;1.27;;;22.30;99.90;;;;;;5031987;28;20214;-68
2022/08/20 09:42:22;;;;;;;3.90;1.93;;;22.30;99.80;;;;;;5031435;28;20417;-67
2022/08/20 09:44:48;;;;;;;4.47;1.03;;;22.30;99.90;;;;;;5031829;28;20745;-68
2022/08/20 09:47:14;;;;;;;2.50;1.50;;;22.30;99.90;;;;;;5031743;28;20416;-68
2022/08/20 09:49:40;;;;;;;2.50;1.73;;;22.40;99.60;;;;;;5031907;28;20624;-68
2022/08/20 09:52:09;;;;;;;2.63;1.63;;;22.40;99.20;;;;;;5030467;28;20689;-68
2022/08/20 09:54:36;;;;;;;3.57;1.50;;;22.70;98.40;;;;;;5031650;28;20923;-68
2022/08/20 09:57:04;;;;;;;3.93;1.50;;;22.70;97.70;;;;;;5030398;28;20822;-68
2022/08/20 09:59:31;;;;;;;2.23;1.10;;;22.70;97.70;;;;;;5033567;28;20452;-68
2022/08/20 10:01:57;;;;;;;6.60;1.77;;;22.60;97.40;;;;;;5034919;28;20451;-68
2022/08/20 10:04:23;;;;;;;1.90;1.03;;;22.60;97.90;;;;;;5035429;28;20484;-68
2022/08/20 10:06:49;;;;;;;2.57;1.27;;;22.40;98.00;;;;;;5035623;28;20793;-67
2022/08/20 10:09:14;;;;;;;3.30;1.10;;;22.30;98.30;;;;;;5035044;28;20178;-67
2022/08/20 10:11:40;;;;;;;2.80;1.10;;;22.10;98.70;;;;;;5035003;28;20178;-67
2022/08/20 10:14:07;;;;;;;2.57;1.10;;;21.90;99.20;;;;;;5035232;28;20181;-68
2022/08/20 10:16:33;;;;;;;2.80;1.33;;;21.90;99.40;;;;;;5035351;28;20184;-68
2022/08/20 10:18:59;;;;;;;2.07;1.13;;;21.90;99.30;;;;;;5035421;28;20893;-68
2022/08/20 10:21:25;;;;;;;4.40;1.20;;;21.90;99.40;;;;;;5035054;28;20413;-68
2022/08/20 10:23:50;;;;;;;2.73;1.10;;;21.70;99.70;;;;;;5034913;28;20561;-68
2022/08/20 10:26:16;;;;;;;2.87;1.60;;;21.60;99.80;;;;;;5035252;28;20175;-68
2022/08/20 10:28:42;;;;;;;5.73;1.17;;;21.40;99.90;;;;;;5035271;28;20202;-68
2022/08/20 10:31:10;;;;;;;4.57;1.60;;;21.30;99.90;;;;;;5034804;28;20245;-68
2022/08/20 10:33:37;;;;;;;3.47;1.60;;;21.20;99.90;;;;;;5034955;28;20444;-68
2022/08/20 10:36:11;;;;;;;1.70;0.90;;;21.20;99.90;;;;;;5034973;28;20754;-68
2022/08/20 10:38:37;;;;;;;1.40;0.60;;;21.00;99.90;;;;;;5034740;28;20897;-68
2022/08/20 10:41:03;;;;;;;1.90;1.00;;;21.00;99.90;;;;;;5034597;28;20475;-67
2022/08/20 10:43:28;;;;;;;3.00;0.97;;;20.90;99.90;;;;;;5034946;28;20177;-68
2022/08/20 10:45:54;;;;;;;1.43;0.63;;;20.80;99.90;;;;;;5034784;28;20170;-68
2022/08/20 10:48:21;;;;;;;1.50;0.60;;;20.80;99.90;;;;;;5034601;28;20317;-68
2022/08/20 10:50:47;;;;;;;1.70;0.77;;;20.80;99.90;;;;;;5033875;28;20618;-67
2022/08/20 10:53:13;;;;;;;2.30;0.80;;;20.80;99.90;;;;;;5033998;28;20425;-68
2022/08/20 10:55:39;;;;;;;1.47;0.60;;;20.90;99.90;;;;;;5034405;28;20420;-68
2022/08/20 10:58:06;;;;;;;2.90;0.87;;;21.00;99.90;;;;;;5034531;28;20537;-68
2022/08/20 11:00:32;;;;;;;1.77;0.63;;;21.00;99.90;;;;;;5034354;28;20209;-68
2022/08/20 11:02:58;;;;;;;1.93;0.80;;;20.90;99.90;;;;;;5033832;28;20420;-68
2022/08/20 11:05:24;;;;;;;4.80;0.73;;;20.80;99.90;;;;;;5034390;28;20404;-68
2022/08/20 11:07:49;;;;;;;1.40;0.53;;;20.70;99.90;;;;;;5034344;28;20627;-68
2022/08/20 11:10:15;;;;;;;1.50;0.50;;;20.80;99.90;;;;;;5033382;28;20185;-67
2022/08/20 11:12:41;;;;;;;1.37;0.50;;;20.70;99.90;;;;;;5033808;28;20175;-68
2022/08/20 11:15:07;;;;;;;3.97;0.70;;;20.70;99.90;;;;;;5034099;28;20634;-68
2022/08/20 11:17:35;;;;;;;1.40;0.60;;;20.60;99.90;;;;;;5034110;28;20198;-67
2022/08/20 11:20:03;;;;;;;1.30;0.50;;;20.60;99.90;;;;;;5033862;28;20552;-67
2022/08/20 11:22:29;;;;;;;1.67;0.73;;;20.40;99.90;;;;;;5033512;28;20524;-67
2022/08/20 11:24:55;;;;;;;1.53;0.60;;;20.10;99.90;;;;;;5033644;28;20806;-67
2022/08/20 11:27:37;;;;;;;1.67;0.67;;;19.90;99.90;;;;;;5033884;28;20234;-68
2022/08/20 11:30:04;;;;;;;1.50;0.70;;;19.90;99.90;;;;;;5033780;28;20669;-68
2022/08/20 11:32:30;;;;;;;1.40;0.50;;;19.80;99.90;;;;;;5033080;28;20971;-68
2022/08/20 11:34:56;;;;;;;1.63;0.60;;;19.70;99.90;;;;;;5033525;28;20413;-68
2022/08/20 11:37:23;;;;;;;1.50;0.60;;;19.80;99.90;;;;;;5033767;28;20167;-67
2022/08/20 11:39:49;;;;;;;1.97;0.83;;;19.90;99.90;;;;;;5033401;28;20710;-68
2022/08/20 11:42:15;;;;;;;2.47;0.83;;;20.00;99.90;;;;;;5033238;28;20451;-68
2022/08/20 11:44:41;;;;;;;6.13;0.70;;;20.00;99.90;;;;;;5033598;28;20635;-68
2022/08/20 11:47:09;;;;;;;1.93;0.60;;;20.20;99.90;;;;;;5033576;28;20175;-68
2022/08/20 11:49:35;;;;;;;1.30;0.50;;;20.20;99.90;;;;;;5033633;28;20221;-68
2022/08/20 11:52:02;;;;;;;4.07;0.60;;;20.40;99.90;;;;;;5032639;28;20424;-67
2022/08/20 11:54:28;;;;;;;1.30;0.50;;;20.40;99.90;;;;;;5033393;28;20488;-67
2022/08/20 11:56:58;;;;;;;1.30;0.50;;;20.40;99.90;;;;;;5032924;28;21001;-67
2022/08/20 11:59:24;;;;;;;1.40;0.50;;;20.40;99.90;;;;;;5033268;28;20203;-68
2022/08/20 12:01:52;;;;;;;1.40;0.50;;;20.50;99.90;;;;;;5032608;28;20522;-68
2022/08/20 12:04:18;;;;;;;1.87;0.90;;;20.60;99.90;;;;;;5032883;28;20410;-68
2022/08/20 12:06:44;;;;;;;1.30;0.50;;;20.70;99.90;;;;;;5033116;28;20408;-68
2022/08/20 12:09:09;;;;;;;1.37;0.50;;;20.80;99.90;;;;;;5033256;28;20273;-68
2022/08/20 12:11:35;;;;;;;1.40;0.50;;;20.80;99.90;;;;;;5032276;28;20654;-68
2022/08/20 12:14:01;;;;;;;2.33;0.70;;;20.80;99.90;;;;;;5033124;28;20186;-68
2022/08/20 12:16:26;;;;;;;1.70;0.70;;;21.00;99.90;;;;;;5032837;28;20182;-68
2022/08/20 12:18:52;;;;;;;1.40;0.50;;;21.10;99.90;;;;;;5032866;28;20220;-68
2022/08/20 12:21:17;;;;;;;1.40;0.60;;;21.10;99.90;;;;;;5032354;28;20666;-69
2022/08/20 12:23:43;;;;;;;1.60;0.60;;;21.10;99.90;;;;;;5031864;28;20188;-68
2022/08/20 12:26:09;;;;;;;1.30;0.50;;;21.30;99.90;;;;;;5032426;28;20171;-68
2022/08/20 12:28:35;;;;;;;1.60;0.60;;;21.30;99.90;;;;;;5032751;28;20459;-68
2022/08/20 12:31:00;;;;;;;1.40;0.50;;;21.40;99.90;;;;;;5032378;28;20184;-68
2022/08/20 12:33:26;;;;;;;1.53;0.67;;;21.50;99.90;;;;;;5032377;28;20228;-68
2022/08/20 12:35:52;;;;;;;2.40;0.77;;;21.70;99.90;;;;;;5032443;28;20170;-68
2022/08/20 12:38:18;;;;;;;1.50;0.60;;;21.90;99.90;;;;;;5032550;28;20178;-69
2022/08/20 12:40:43;;;;;;;1.77;0.60;;;21.90;99.90;;;;;;5032105;28;20232;-68
2022/08/20 12:43:09;;;;;;;1.60;0.60;;;22.10;99.90;;;;;;5032031;28;20190;-68
2022/08/20 12:45:35;;;;;;;2.43;0.77;;;22.20;99.90;;;;;;5032350;28;20221;-68
2022/08/20 12:48:06;;;;;;;1.40;0.60;;;22.40;99.90;;;;;;5032264;28;20229;-68
2022/08/20 12:50:33;;;;;;;1.40;0.60;;;22.50;99.90;;;;;;5031903;28;20484;-67
2022/08/20 12:52:59;;;;;;;1.50;0.60;;;22.50;99.90;;;;;;5031888;28;20405;-68
2022/08/20 12:55:25;;;;;;;1.40;0.57;;;22.60;99.40;;;;;;5032064;28;20420;-68